PH18K EHRD-EHRD
Flight info
| Callsign | PH18K |
|---|---|
| Flight time | 0h 19m |
| Altitude | 6000 |
| Route | WOODY DCT DOFMU |
| Aircraft | DA62/L-SDFGRY/C |
Departure
| Time | 2026-04-28 18:38 |
|---|---|
| Airport | Rotterdam The Hague Airport (EHRD) |
Arrival
| Time | 2026-04-28 18:58 |
|---|---|
| Airport | Rotterdam The Hague Airport (EHRD) |
| Time | Latitude | Longitude | Altitude | Speed | Heading |
|---|---|---|---|---|---|
| 2026-04-28 18:29 | 51.95022 | 4.42797 | -4 ft | 0 kts | 325° |
| 2026-04-28 18:32 | 51.95026 | 4.42820 | -4 ft | 8 kts | 90° |
| 2026-04-28 18:32 | 51.95066 | 4.42931 | -4 ft | 13 kts | 58° |
| 2026-04-28 18:32 | 51.95115 | 4.43053 | -4 ft | 13 kts | 59° |
| 2026-04-28 18:33 | 51.95174 | 4.43103 | -4 ft | 11 kts | 341° |
| 2026-04-28 18:33 | 51.95204 | 4.43097 | -4 ft | 0 kts | 6° |
| 2026-04-28 18:36 | 51.95256 | 4.43104 | -4 ft | 17 kts | 4° |
| 2026-04-28 18:36 | 51.95349 | 4.43179 | -4 ft | 10 kts | 52° |
| 2026-04-28 18:36 | 51.95360 | 4.43203 | -4 ft | 0 kts | 56° |
| 2026-04-28 18:37 | 51.95451 | 4.43427 | -5 ft | 49 kts | 57° |
| 2026-04-28 18:37 | 51.95701 | 4.44039 | 59 ft | 75 kts | 58° |
| 2026-04-28 18:37 | 51.96019 | 4.44801 | 214 ft | 85 kts | 56° |
| 2026-04-28 18:38 | 51.96366 | 4.45615 | 338 ft | 88 kts | 48° |
| 2026-04-28 18:38 | 51.96830 | 4.45273 | 536 ft | 113 kts | 276° |
| 2026-04-28 18:38 | 51.96462 | 4.44023 | 500 ft | 137 kts | 239° |
| 2026-04-28 18:38 | 51.95945 | 4.42727 | 586 ft | 138 kts | 237° |
| 2026-04-28 18:39 | 51.95384 | 4.41399 | 587 ft | 145 kts | 234° |
| 2026-04-28 18:39 | 51.94827 | 4.40035 | 651 ft | 138 kts | 238° |
| 2026-04-28 18:39 | 51.94199 | 4.39069 | 694 ft | 114 kts | 180° |
| 2026-04-28 18:39 | 51.93892 | 4.39493 | 688 ft | 71 kts | 57° |
| 2026-04-28 18:40 | 51.94203 | 4.40309 | 505 ft | 100 kts | 57° |
| 2026-04-28 18:40 | 51.94571 | 4.41235 | 343 ft | 88 kts | 58° |
| 2026-04-28 18:40 | 51.94849 | 4.41941 | 227 ft | 67 kts | 56° |
| 2026-04-28 18:40 | 51.95126 | 4.42603 | 71 ft | 71 kts | 57° |
| 2026-04-28 18:41 | 51.95400 | 4.43292 | -4 ft | 66 kts | 58° |
| 2026-04-28 18:41 | 51.95615 | 4.43854 | -4 ft | 66 kts | 59° |
| 2026-04-28 18:41 | 51.95903 | 4.44531 | 99 ft | 78 kts | 58° |
| 2026-04-28 18:41 | 51.96220 | 4.45260 | 275 ft | 78 kts | 51° |
| 2026-04-28 18:42 | 51.96541 | 4.45938 | 418 ft | 76 kts | 54° |
| 2026-04-28 18:42 | 51.96870 | 4.46608 | 631 ft | 78 kts | 28° |
| 2026-04-28 18:42 | 51.97400 | 4.45888 | 588 ft | 121 kts | 319° |
| 2026-04-28 18:42 | 51.97546 | 4.44591 | 656 ft | 134 kts | 243° |
| 2026-04-28 18:43 | 51.97019 | 4.43272 | 624 ft | 140 kts | 233° |
| 2026-04-28 18:43 | 51.96437 | 4.42047 | 672 ft | 140 kts | 231° |
| 2026-04-28 18:43 | 51.95806 | 4.40926 | 684 ft | 143 kts | 224° |
| 2026-04-28 18:43 | 51.95046 | 4.40382 | 638 ft | 114 kts | 150° |
| 2026-04-28 18:44 | 51.94446 | 4.41161 | 583 ft | 97 kts | 115° |
| 2026-04-28 18:44 | 51.95067 | 4.42477 | 111 ft | 73 kts | 57° |
| 2026-04-28 18:44 | 51.95321 | 4.43101 | 7 ft | 60 kts | 59° |
| 2026-04-28 18:45 | 51.95538 | 4.43643 | -1 ft | 59 kts | 58° |
| 2026-04-28 18:45 | 51.95803 | 4.44291 | 108 ft | 72 kts | 57° |
| 2026-04-28 18:45 | 51.96096 | 4.44975 | 213 ft | 82 kts | 57° |
| 2026-04-28 18:45 | 51.96385 | 4.45761 | 429 ft | 71 kts | 56° |
| 2026-04-28 18:46 | 51.96783 | 4.46300 | 489 ft | 91 kts | 349° |
| 2026-04-28 18:46 | 51.97210 | 4.45369 | 534 ft | 119 kts | 265° |
| 2026-04-28 18:46 | 51.96786 | 4.44100 | 422 ft | 134 kts | 239° |
| 2026-04-28 18:46 | 51.96279 | 4.42897 | 499 ft | 133 kts | 235° |
| 2026-04-28 18:47 | 51.95747 | 4.41678 | 492 ft | 135 kts | 234° |
| 2026-04-28 18:47 | 51.95085 | 4.40712 | 538 ft | 122 kts | 170° |
| 2026-04-28 18:47 | 51.94575 | 4.41374 | 528 ft | 85 kts | 55° |
| 2026-04-28 18:47 | 51.94951 | 4.42186 | 158 ft | 85 kts | 57° |
| 2026-04-28 18:48 | 51.95223 | 4.42858 | 28 ft | 68 kts | 58° |
| 2026-04-28 18:48 | 51.95469 | 4.43477 | -5 ft | 51 kts | 59° |
| 2026-04-28 18:48 | 51.95637 | 4.43932 | -5 ft | 61 kts | 54° |
| 2026-04-28 18:48 | 51.95925 | 4.44637 | -3 ft | 86 kts | 60° |
| 2026-04-28 18:49 | 51.96254 | 4.45484 | 160 ft | 80 kts | 56° |
| 2026-04-28 18:49 | 51.96470 | 4.45935 | 305 ft | 79 kts | 53° |
| 2026-04-28 18:49 | 51.97012 | 4.46158 | 573 ft | 99 kts | 322° |
| 2026-04-28 18:49 | 51.97261 | 4.45055 | 640 ft | 126 kts | 247° |
| 2026-04-28 18:50 | 51.96802 | 4.43730 | 585 ft | 138 kts | 242° |
| 2026-04-28 18:50 | 51.96295 | 4.42390 | 633 ft | 136 kts | 241° |
| 2026-04-28 18:50 | 51.95804 | 4.41063 | 563 ft | 140 kts | 241° |
| 2026-04-28 18:50 | 51.95333 | 4.39732 | 518 ft | 126 kts | 241° |
| 2026-04-28 18:51 | 51.94750 | 4.38903 | 425 ft | 111 kts | 160° |
| 2026-04-28 18:51 | 51.94201 | 4.39565 | 488 ft | 95 kts | 107° |
| 2026-04-28 18:51 | 51.94299 | 4.40549 | 431 ft | 83 kts | 58° |
| 2026-04-28 18:51 | 51.94580 | 4.41248 | 302 ft | 70 kts | 59° |
| 2026-04-28 18:52 | 51.94814 | 4.41877 | 253 ft | 60 kts | 60° |
| 2026-04-28 18:52 | 51.95075 | 4.42520 | 52 ft | 72 kts | 58° |
| 2026-04-28 18:52 | 51.95350 | 4.43171 | 1 ft | 66 kts | 60° |
| 2026-04-28 18:52 | 51.95544 | 4.43682 | -6 ft | 56 kts | 59° |
| 2026-04-28 18:53 | 51.95819 | 4.44356 | -3 ft | 85 kts | 58° |
| 2026-04-28 18:53 | 51.96161 | 4.45107 | 205 ft | 80 kts | 54° |
| 2026-04-28 18:53 | 51.96511 | 4.45500 | 302 ft | 102 kts | 316° |
| 2026-04-28 18:53 | 51.96686 | 4.44437 | 425 ft | 114 kts | 240° |
| 2026-04-28 18:54 | 51.96216 | 4.43247 | 372 ft | 134 kts | 235° |
| 2026-04-28 18:54 | 51.95659 | 4.42009 | 463 ft | 137 kts | 231° |
| 2026-04-28 18:54 | 51.94963 | 4.41532 | 551 ft | 96 kts | 135° |
| 2026-04-28 18:54 | 51.94982 | 4.42269 | 348 ft | 77 kts | 56° |
| 2026-04-28 18:55 | 51.95266 | 4.42933 | 134 ft | 73 kts | 58° |
| 2026-04-28 18:55 | 51.95458 | 4.43427 | -2 ft | 71 kts | 59° |
| 2026-04-28 18:55 | 51.95743 | 4.44154 | 51 ft | 64 kts | 57° |
| 2026-04-28 18:55 | 51.96023 | 4.44827 | 187 ft | 77 kts | 56° |
| 2026-04-28 18:56 | 51.96331 | 4.45402 | 477 ft | 69 kts | 19° |
| 2026-04-28 18:56 | 51.96577 | 4.44621 | 475 ft | 118 kts | 240° |
| 2026-04-28 18:56 | 51.96090 | 4.43439 | 425 ft | 136 kts | 233° |
| 2026-04-28 18:56 | 51.95546 | 4.42131 | 447 ft | 143 kts | 236° |
| 2026-04-28 18:57 | 51.94947 | 4.40943 | 600 ft | 115 kts | 200° |
| 2026-04-28 18:57 | 51.94671 | 4.41443 | 576 ft | 80 kts | 60° |
| 2026-04-28 18:57 | 51.94998 | 4.42296 | 279 ft | 89 kts | 57° |
| 2026-04-28 18:57 | 51.95301 | 4.43048 | 40 ft | 78 kts | 58° |
| 2026-04-28 18:58 | 51.95585 | 4.43759 | 1 ft | 72 kts | 58° |
| 2026-04-28 18:58 | 51.95790 | 4.44272 | -5 ft | 49 kts | 57° |
| 2026-04-28 18:58 | 51.96007 | 4.44796 | 38 ft | 66 kts | 58° |
| 2026-04-28 18:58 | 51.96273 | 4.45449 | 203 ft | 75 kts | 57° |
| 2026-04-28 18:59 | 51.96563 | 4.46119 | 386 ft | 75 kts | 56° |
| 2026-04-28 18:59 | 51.96821 | 4.46837 | 532 ft | 76 kts | 64° |
| 2026-04-28 18:59 | 51.97073 | 4.47649 | 578 ft | 80 kts | 62° |
| 2026-04-28 18:59 | 51.97553 | 4.47528 | 515 ft | 120 kts | 314° |
| 2026-04-28 19:00 | 51.97530 | 4.46233 | 495 ft | 131 kts | 240° |
| 2026-04-28 19:00 | 51.97049 | 4.44971 | 531 ft | 131 kts | 238° |
| 2026-04-28 19:00 | 51.96566 | 4.43715 | 609 ft | 133 kts | 233° |
| 2026-04-28 19:00 | 51.96042 | 4.42422 | 589 ft | 139 kts | 240° |
| 2026-04-28 19:01 | 51.95571 | 4.41087 | 724 ft | 131 kts | 261° |
| 2026-04-28 19:01 | 51.95922 | 4.40253 | 895 ft | 86 kts | 19° |
| 2026-04-28 19:01 | 51.95733 | 4.40883 | 481 ft | 155 kts | 200° |
| 2026-04-28 19:01 | 51.95213 | 4.39519 | 440 ft | 130 kts | 246° |
| 2026-04-28 19:02 | 51.94769 | 4.38292 | 533 ft | 121 kts | 234° |
| 2026-04-28 19:02 | 51.94222 | 4.37412 | 730 ft | 103 kts | 191° |
| 2026-04-28 19:02 | 51.93611 | 4.37646 | 719 ft | 90 kts | 105° |
| 2026-04-28 19:02 | 51.93594 | 4.38679 | 687 ft | 101 kts | 68° |
| 2026-04-28 19:03 | 51.93947 | 4.39686 | 588 ft | 96 kts | 57° |
| 2026-04-28 19:03 | 51.94270 | 4.40472 | 524 ft | 78 kts | 56° |
| 2026-04-28 19:03 | 51.94554 | 4.41169 | 339 ft | 76 kts | 53° |
| 2026-04-28 19:03 | 51.94836 | 4.41864 | 244 ft | 75 kts | 59° |
| 2026-04-28 19:04 | 51.95105 | 4.42569 | 115 ft | 73 kts | 56° |
| 2026-04-28 19:04 | 51.95396 | 4.43291 | -2 ft | 77 kts | 58° |
| 2026-04-28 19:04 | 51.95676 | 4.43982 | 39 ft | 67 kts | 57° |
| 2026-04-28 19:04 | 51.95980 | 4.44723 | 128 ft | 81 kts | 54° |
| 2026-04-28 19:05 | 51.96284 | 4.45433 | 411 ft | 71 kts | 46° |
| 2026-04-28 19:05 | 51.96417 | 4.44826 | 331 ft | 125 kts | 236° |
| 2026-04-28 19:05 | 51.95984 | 4.43572 | 308 ft | 133 kts | 244° |
| 2026-04-28 19:05 | 51.95513 | 4.42248 | 407 ft | 135 kts | 238° |
| 2026-04-28 19:06 | 51.94989 | 4.40921 | 464 ft | 135 kts | 230° |
| 2026-04-28 19:06 | 51.94540 | 4.40790 | 559 ft | 98 kts | 112° |
| 2026-04-28 19:06 | 51.94850 | 4.41916 | 262 ft | 80 kts | 59° |
| 2026-04-28 19:06 | 51.95140 | 4.42645 | 125 ft | 75 kts | 58° |
| 2026-04-28 19:07 | 51.95430 | 4.43358 | -1 ft | 73 kts | 58° |
| 2026-04-28 19:07 | 51.95656 | 4.43939 | 9 ft | 52 kts | 57° |
| 2026-04-28 19:07 | 51.95908 | 4.44551 | 37 ft | 78 kts | 58° |
| 2026-04-28 19:07 | 51.96207 | 4.45309 | 274 ft | 77 kts | 56° |
| 2026-04-28 19:08 | 51.96576 | 4.45726 | 564 ft | 76 kts | 343° |
| 2026-04-28 19:08 | 51.96962 | 4.44855 | 555 ft | 108 kts | 308° |
| 2026-04-28 19:08 | 51.96732 | 4.43678 | 575 ft | 131 kts | 234° |
| 2026-04-28 19:08 | 51.96181 | 4.42479 | 570 ft | 134 kts | 233° |
| 2026-04-28 19:09 | 51.95633 | 4.41254 | 663 ft | 133 kts | 233° |
| 2026-04-28 19:09 | 51.95175 | 4.39951 | 707 ft | 135 kts | 275° |
| 2026-04-28 19:09 | 51.95653 | 4.39178 | 826 ft | 83 kts | 37° |
| 2026-04-28 19:09 | 51.95322 | 4.39235 | 729 ft | 135 kts | 257° |
| 2026-04-28 19:10 | 51.95638 | 4.38393 | 803 ft | 94 kts | 25° |
| 2026-04-28 19:10 | 51.95397 | 4.38847 | 897 ft | 130 kts | 203° |
| 2026-04-28 19:10 | 51.94940 | 4.37463 | 879 ft | 137 kts | 223° |
| 2026-04-28 19:10 | 51.94216 | 4.37529 | 886 ft | 100 kts | 126° |
| 2026-04-28 19:11 | 51.93871 | 4.38452 | 841 ft | 99 kts | 95° |
| 2026-04-28 19:11 | 51.93979 | 4.39547 | 690 ft | 102 kts | 62° |
| 2026-04-28 19:11 | 51.94336 | 4.40601 | 535 ft | 110 kts | 57° |
| 2026-04-28 19:11 | 51.94747 | 4.41565 | 314 ft | 102 kts | 53° |
| 2026-04-28 19:12 | 51.95118 | 4.42595 | 96 ft | 113 kts | 58° |
| 2026-04-28 19:12 | 51.95544 | 4.43667 | 0 ft | 109 kts | 58° |
| 2026-04-28 19:12 | 51.95942 | 4.44659 | 0 ft | 104 kts | 58° |
| 2026-04-28 19:12 | 51.96319 | 4.45550 | 237 ft | 90 kts | 57° |
| 2026-04-28 19:13 | 51.96781 | 4.46029 | 490 ft | 97 kts | 340° |
| 2026-04-28 19:13 | 51.96759 | 4.45256 | 455 ft | 128 kts | 244° |
| 2026-04-28 19:13 | 51.96133 | 4.43586 | 441 ft | 129 kts | 236° |
| 2026-04-28 19:13 | 51.95615 | 4.42403 | 510 ft | 133 kts | 234° |
| 2026-04-28 19:14 | 51.95192 | 4.41030 | 556 ft | 138 kts | 253° |
| 2026-04-28 19:14 | 51.94796 | 4.39652 | 581 ft | 138 kts | 241° |
| 2026-04-28 19:14 | 51.94266 | 4.38381 | 683 ft | 135 kts | 232° |
| 2026-04-28 19:14 | 51.93874 | 4.37560 | 666 ft | 139 kts | 234° |
| 2026-04-28 19:15 | 51.93171 | 4.36875 | 704 ft | 115 kts | 150° |
| 2026-04-28 19:15 | 51.92709 | 4.37640 | 838 ft | 88 kts | 73° |
| 2026-04-28 19:15 | 51.93248 | 4.38324 | 639 ft | 113 kts | 40° |
| 2026-04-28 19:15 | 51.93624 | 4.38941 | 601 ft | 111 kts | 49° |
| 2026-04-28 19:16 | 51.94162 | 4.40228 | 365 ft | 96 kts | 54° |
| 2026-04-28 19:16 | 51.94526 | 4.41122 | 232 ft | 87 kts | 61° |
| 2026-04-28 19:16 | 51.94834 | 4.41863 | 210 ft | 73 kts | 60° |
| 2026-04-28 19:16 | 51.95089 | 4.42526 | 123 ft | 64 kts | 59° |
| 2026-04-28 19:17 | 51.95337 | 4.43146 | 16 ft | 64 kts | 59° |
| 2026-04-28 19:17 | 51.95530 | 4.43655 | -6 ft | 39 kts | 61° |
| 2026-04-28 19:17 | 51.95649 | 4.43943 | -5 ft | 29 kts | 56° |
| 2026-04-28 19:17 | 51.95771 | 4.44234 | -6 ft | 33 kts | 56° |
| 2026-04-28 19:18 | 51.95890 | 4.44540 | -7 ft | 24 kts | 59° |
| 2026-04-28 19:18 | 51.95876 | 4.44713 | -5 ft | 21 kts | 144° |
| 2026-04-28 19:18 | 51.95755 | 4.44672 | -4 ft | 27 kts | 236° |
| 2026-04-28 19:18 | 51.95627 | 4.44358 | -4 ft | 35 kts | 237° |
| 2026-04-28 19:19 | 51.95494 | 4.44027 | -4 ft | 35 kts | 237° |
| 2026-04-28 19:19 | 51.95359 | 4.43690 | -4 ft | 40 kts | 236° |
| 2026-04-28 19:19 | 51.95232 | 4.43371 | -4 ft | 22 kts | 237° |
| 2026-04-28 19:19 | 51.95184 | 4.43252 | -4 ft | 10 kts | 237° |
| 2026-04-28 19:20 | 51.95132 | 4.43096 | -4 ft | 13 kts | 245° |
| 2026-04-28 19:20 | 51.95091 | 4.42993 | -4 ft | 11 kts | 238° |
| 2026-04-28 19:20 | 51.95056 | 4.42905 | -4 ft | 10 kts | 237° |
| 2026-04-28 19:20 | 51.95022 | 4.42818 | -4 ft | 14 kts | 237° |
| 2026-04-28 19:21 | 51.94974 | 4.42724 | -4 ft | 2 kts | 192° |
| 2026-04-28 19:21 | 51.94958 | 4.42716 | -4 ft | 12 kts | 211° |
| 2026-04-28 19:21 | 51.94950 | 4.42655 | -4 ft | 0 kts | 27° |
| 2026-04-28 19:21 | 51.94944 | 4.42679 | -4 ft | 6 kts | 169° |
| 2026-04-28 19:22 | 51.94945 | 4.42656 | -4 ft | 3 kts | 335° |
| 2026-04-28 19:22 | 51.94951 | 4.42654 | -4 ft | 0 kts | 30° |
| 2026-04-28 19:22 | 51.94951 | 4.42677 | -4 ft | 0 kts | 147° |